Nefterudovoz-47m — UFFP — position and weather

sailwx.info

Track history (hours):
 
Tides and Currents Weather Stations Pressure Air Temp Water Temp Dewpoint Dewpoint Depression Visibility Wind Speed Wind Dir Waves Ship Positions

Nefterudovoz-47m

Last reported at 2018-Feb-15 01:02 UTC. Time now 2018-Feb-20 21:33 UTC.
Position N 45°11' E 036°28'.

Length 119 m; draft 3.9 m.

Type: Cargo ship. MMSI: 273347800.

Date/timePositionNaut miles runAvg speedWind from/ knotsBaromVisibWave heightAir tempDewpointWater temp
2018-Feb-15 01:02N 45°11' E 036°28'1 7.3
2018-Feb-15 00:54N 45°12' E 036°28'3 7.2
2018-Feb-15 00:28N 45°15' E 036°28'5 6.7
2018-Feb-14 23:45N 45°19' E 036°32'2 8.3
2018-Feb-14 23:30N 45°20' E 036°35'4 7.8
2018-Feb-14 23:00N 45°22' E 036°40'3 5.7
2018-Feb-14 22:30N 45°25' E 036°41'3 5.4
2018-Feb-14 22:00N 45°27' E 036°41'2 4.2
2018-Feb-14 21:30N 45°29' E 036°39'0 0.6
2018-Feb-14 20:55N 45°29' E 036°38'0 0.0
2018-Feb-14 19:43N 45°29' E 036°38'0 0.0
2018-Feb-14 19:19N 45°29' E 036°38'0 0.0
2018-Feb-14 18:58N 45°29' E 036°38'0 0.0
2018-Feb-14 18:28N 45°29' E 036°38'0 0.0
2018-Feb-14 17:22N 45°29' E 036°38'0 0.0
2018-Feb-14 16:58N 45°29' E 036°38'0 0.0
2018-Feb-14 16:25N 45°29' E 036°38'0 0.0
2018-Feb-14 15:58N 45°29' E 036°38'0 0.0
2018-Feb-14 15:25N 45°29' E 036°38'0 0.0
2018-Feb-14 14:58N 45°29' E 036°38'0 0.0
2018-Feb-14 14:28N 45°29' E 036°38'0 0.0
2018-Feb-14 13:58N 45°29' E 036°38'0 0.0
2018-Feb-14 13:28N 45°29' E 036°38'1 1.3
2018-Feb-14 13:00N 45°29' E 036°39'4 7.3
2018-Feb-14 12:28N 45°30' E 036°45'  
Track history (hours):
 
Tides and Currents Weather Stations Pressure Air Temp Water Temp Dewpoint Dewpoint Depression Visibility Wind Speed Wind Dir Waves Ship Positions

Nefterudovoz-47m

Last reported at 2018-Feb-15 01:02 UTC. Time now 2018-Feb-20 21:33 UTC.
Position N 45°11' E 036°28'.

Length 119 m; draft 3.9 m.

Type: Cargo ship. MMSI: 273347800.

Date/timePositionNaut miles runAvg speedWind from/ knotsBaromVisibWave heightAir tempDewpointWater temp
2018-Feb-15 01:02N 45°11' E 036°28'1 7.3
2018-Feb-15 00:54N 45°12' E 036°28'3 7.2
2018-Feb-15 00:28N 45°15' E 036°28'5 6.7
2018-Feb-14 23:45N 45°19' E 036°32'2 8.3
2018-Feb-14 23:30N 45°20' E 036°35'4 7.8
2018-Feb-14 23:00N 45°22' E 036°40'3 5.7
2018-Feb-14 22:30N 45°25' E 036°41'3 5.4
2018-Feb-14 22:00N 45°27' E 036°41'2 4.2
2018-Feb-14 21:30N 45°29' E 036°39'0 0.6
2018-Feb-14 20:55N 45°29' E 036°38'0 0.0
2018-Feb-14 19:43N 45°29' E 036°38'0 0.0
2018-Feb-14 19:19N 45°29' E 036°38'0 0.0
2018-Feb-14 18:58N 45°29' E 036°38'0 0.0
2018-Feb-14 18:28N 45°29' E 036°38'0 0.0
2018-Feb-14 17:22N 45°29' E 036°38'0 0.0
2018-Feb-14 16:58N 45°29' E 036°38'0 0.0
2018-Feb-14 16:25N 45°29' E 036°38'0 0.0
2018-Feb-14 15:58N 45°29' E 036°38'0 0.0
2018-Feb-14 15:25N 45°29' E 036°38'0 0.0
2018-Feb-14 14:58N 45°29' E 036°38'0 0.0
2018-Feb-14 14:28N 45°29' E 036°38'0 0.0
2018-Feb-14 13:58N 45°29' E 036°38'0 0.0
2018-Feb-14 13:28N 45°29' E 036°38'1 1.3
2018-Feb-14 13:00N 45°29' E 036°39'4 7.3
2018-Feb-14 12:28N 45°30' E 036°45'  

Dump ship's entire track history